ICAO code: LHPR | IATA code: QGY | SITA: QGYAPXH | AFTN: LHPRZPZX

Időjárási adatok

METAR LHPR 090615Z AUTO 09017KT 9000 -RA FEW012 OVC053 01/00 Q1004 NOSIG=
TAF LHPR 090515Z 0906/0915 10010KT 7000 -SN BKN045 OVC060 BECMG
0906/0909 03008KT 1500 SN BKN005 OVC020 PROB30 TEMPO 0906/0909
SNRA PL FZRA TEMPO 0909/0915 0600 +SN VV002 BECMG 0912/0915
33008KT=
Eső, nem ónos, gyenge
2021-12-09 06:10:00 UTC
Hőmérséklet
0.5 °C
 
Harmatpont
0.3 °C
 
Rel. páratartalom
99%
 
QNH
1004.8 hPa
 
Szélsebesség
7.7 m/s
Max
10.2 m/s
Szélirány
80°
 
Csapadék (1 óra)
0.5 mm
 
Látótávolság
9130 m
 
RVR
>1500 m RWY29
 
1. felhőréteg mennyisége
2 octa
 
1. felhőréteg alapja
370 m